sensor_id;sensor_type;location;lat;lon;timestamp;temperature;humidity
47338;DHT22;33069;51.970;5.892;2023-08-21T00:00:11;20.40;72.70
47338;DHT22;33069;51.970;5.892;2023-08-21T00:02:58;20.40;72.60
47338;DHT22;33069;51.970;5.892;2023-08-21T00:05:44;20.50;73.20
47338;DHT22;33069;51.970;5.892;2023-08-21T00:08:30;20.50;73.80
47338;DHT22;33069;51.970;5.892;2023-08-21T00:11:16;20.40;74.10
47338;DHT22;33069;51.970;5.892;2023-08-21T00:14:02;20.10;75.30
47338;DHT22;33069;51.970;5.892;2023-08-21T00:16:48;20.00;75.90
47338;DHT22;33069;51.970;5.892;2023-08-21T00:19:34;20.00;76.20
47338;DHT22;33069;51.970;5.892;2023-08-21T00:22:20;20.00;76.50
47338;DHT22;33069;51.970;5.892;2023-08-21T00:25:06;20.00;76.70
47338;DHT22;33069;51.970;5.892;2023-08-21T00:27:52;19.60;77.70
47338;DHT22;33069;51.970;5.892;2023-08-21T00:30:39;19.50;78.10
47338;DHT22;33069;51.970;5.892;2023-08-21T00:33:25;19.50;78.20
47338;DHT22;33069;51.970;5.892;2023-08-21T00:36:10;19.50;78.30
47338;DHT22;33069;51.970;5.892;2023-08-21T00:38:56;19.30;79.30
47338;DHT22;33069;51.970;5.892;2023-08-21T00:41:42;19.40;80.30
47338;DHT22;33069;51.970;5.892;2023-08-21T00:44:28;19.40;79.20
47338;DHT22;33069;51.970;5.892;2023-08-21T00:47:14;19.40;78.40
47338;DHT22;33069;51.970;5.892;2023-08-21T00:50:01;19.50;78.80
47338;DHT22;33069;51.970;5.892;2023-08-21T00:52:48;19.50;79.70
47338;DHT22;33069;51.970;5.892;2023-08-21T00:55:35;19.70;79.60
47338;DHT22;33069;51.970;5.892;2023-08-21T00:58:21;19.60;79.40
47338;DHT22;33069;51.970;5.892;2023-08-21T01:01:07;19.60;79.90
47338;DHT22;33069;51.970;5.892;2023-08-21T01:03:53;19.70;80.30
47338;DHT22;33069;51.970;5.892;2023-08-21T01:06:39;19.80;80.10
47338;DHT22;33069;51.970;5.892;2023-08-21T01:09:31;19.60;80.60
47338;DHT22;33069;51.970;5.892;2023-08-21T01:12:23;19.50;80.70
47338;DHT22;33069;51.970;5.892;2023-08-21T01:15:12;19.30;81.10
47338;DHT22;33069;51.970;5.892;2023-08-21T01:17:59;19.40;80.90
47338;DHT22;33069;51.970;5.892;2023-08-21T01:20:46;19.40;80.20
47338;DHT22;33069;51.970;5.892;2023-08-21T01:23:35;19.50;80.10
47338;DHT22;33069;51.970;5.892;2023-08-21T01:26:22;19.60;79.30
47338;DHT22;33069;51.970;5.892;2023-08-21T01:29:08;19.60;78.90
47338;DHT22;33069;51.970;5.892;2023-08-21T01:32:04;19.50;79.70
47338;DHT22;33069;51.970;5.892;2023-08-21T01:34:51;19.60;79.70
47338;DHT22;33069;51.970;5.892;2023-08-21T01:37:40;19.50;79.90
47338;DHT22;33069;51.970;5.892;2023-08-21T01:40:26;19.60;80.20
47338;DHT22;33069;51.970;5.892;2023-08-21T01:43:12;19.30;80.50
47338;DHT22;33069;51.970;5.892;2023-08-21T01:45:58;19.10;81.60
47338;DHT22;33069;51.970;5.892;2023-08-21T01:48:44;19.20;81.30
47338;DHT22;33069;51.970;5.892;2023-08-21T01:51:30;19.30;80.80
47338;DHT22;33069;51.970;5.892;2023-08-21T01:54:16;19.00;81.60
47338;DHT22;33069;51.970;5.892;2023-08-21T01:57:02;18.90;82.00
47338;DHT22;33069;51.970;5.892;2023-08-21T01:59:49;18.90;81.50
47338;DHT22;33069;51.970;5.892;2023-08-21T02:02:35;18.90;81.90
47338;DHT22;33069;51.970;5.892;2023-08-21T02:05:21;18.90;81.90
47338;DHT22;33069;51.970;5.892;2023-08-21T02:08:11;19.10;81.70
47338;DHT22;33069;51.970;5.892;2023-08-21T02:10:57;19.30;81.40
47338;DHT22;33069;51.970;5.892;2023-08-21T02:13:43;19.40;80.90
47338;DHT22;33069;51.970;5.892;2023-08-21T02:16:29;19.40;80.50
47338;DHT22;33069;51.970;5.892;2023-08-21T02:19:15;19.50;80.10
47338;DHT22;33069;51.970;5.892;2023-08-21T02:22:01;19.50;80.00
47338;DHT22;33069;51.970;5.892;2023-08-21T02:24:47;19.40;81.10
47338;DHT22;33069;51.970;5.892;2023-08-21T02:27:33;19.40;80.50
47338;DHT22;33069;51.970;5.892;2023-08-21T02:30:19;19.50;80.00
47338;DHT22;33069;51.970;5.892;2023-08-21T02:33:06;19.40;78.90
47338;DHT22;33069;51.970;5.892;2023-08-21T02:35:52;19.50;78.60
47338;DHT22;33069;51.970;5.892;2023-08-21T02:38:38;19.70;78.80
47338;DHT22;33069;51.970;5.892;2023-08-21T02:41:24;19.40;79.30
47338;DHT22;33069;51.970;5.892;2023-08-21T02:44:10;19.30;79.20
47338;DHT22;33069;51.970;5.892;2023-08-21T02:46:55;19.40;78.90
47338;DHT22;33069;51.970;5.892;2023-08-21T02:49:41;19.40;77.60
47338;DHT22;33069;51.970;5.892;2023-08-21T02:52:28;19.50;76.80
47338;DHT22;33069;51.970;5.892;2023-08-21T02:55:13;19.70;76.90
47338;DHT22;33069;51.970;5.892;2023-08-21T02:58:01;19.70;76.50
47338;DHT22;33069;51.970;5.892;2023-08-21T03:00:47;19.60;76.60
47338;DHT22;33069;51.970;5.892;2023-08-21T03:03:33;19.70;76.50
47338;DHT22;33069;51.970;5.892;2023-08-21T03:06:21;19.70;76.20
47338;DHT22;33069;51.970;5.892;2023-08-21T03:09:07;19.70;76.60
47338;DHT22;33069;51.970;5.892;2023-08-21T03:11:53;19.70;77.40
47338;DHT22;33069;51.970;5.892;2023-08-21T03:14:39;19.70;77.40
47338;DHT22;33069;51.970;5.892;2023-08-21T03:17:25;19.70;76.80
47338;DHT22;33069;51.970;5.892;2023-08-21T03:20:11;19.50;76.30
47338;DHT22;33069;51.970;5.892;2023-08-21T03:22:57;19.60;76.50
47338;DHT22;33069;51.970;5.892;2023-08-21T03:25:43;19.70;76.20
47338;DHT22;33069;51.970;5.892;2023-08-21T03:28:29;19.60;75.90
47338;DHT22;33069;51.970;5.892;2023-08-21T03:31:15;19.70;75.80
47338;DHT22;33069;51.970;5.892;2023-08-21T03:34:01;19.60;76.30
47338;DHT22;33069;51.970;5.892;2023-08-21T03:36:47;19.70;76.90
47338;DHT22;33069;51.970;5.892;2023-08-21T03:39:33;19.70;77.30
47338;DHT22;33069;51.970;5.892;2023-08-21T03:42:19;19.50;78.40
47338;DHT22;33069;51.970;5.892;2023-08-21T03:45:06;19.50;78.40
47338;DHT22;33069;51.970;5.892;2023-08-21T03:47:52;19.50;78.70
47338;DHT22;33069;51.970;5.892;2023-08-21T03:50:38;19.50;78.60
47338;DHT22;33069;51.970;5.892;2023-08-21T03:53:24;19.30;79.20
47338;DHT22;33069;51.970;5.892;2023-08-21T03:56:10;19.20;79.50
47338;DHT22;33069;51.970;5.892;2023-08-21T03:58:56;19.00;80.10
47338;DHT22;33069;51.970;5.892;2023-08-21T04:01:42;19.00;80.30
47338;DHT22;33069;51.970;5.892;2023-08-21T04:04:28;19.10;80.20
47338;DHT22;33069;51.970;5.892;2023-08-21T04:07:14;19.20;79.80
47338;DHT22;33069;51.970;5.892;2023-08-21T04:10:00;19.30;79.60
47338;DHT22;33069;51.970;5.892;2023-08-21T04:12:46;19.20;79.80
47338;DHT22;33069;51.970;5.892;2023-08-21T04:15:34;19.30;80.00
47338;DHT22;33069;51.970;5.892;2023-08-21T04:18:20;19.30;79.80
47338;DHT22;33069;51.970;5.892;2023-08-21T04:21:07;19.20;79.70
47338;DHT22;33069;51.970;5.892;2023-08-21T04:23:52;19.30;80.00
47338;DHT22;33069;51.970;5.892;2023-08-21T04:26:39;19.20;79.50
47338;DHT22;33069;51.970;5.892;2023-08-21T04:29:25;19.20;78.80
47338;DHT22;33069;51.970;5.892;2023-08-21T04:32:11;19.20;78.10
47338;DHT22;33069;51.970;5.892;2023-08-21T04:34:58;19.40;78.20
47338;DHT22;33069;51.970;5.892;2023-08-21T04:37:46;19.50;77.90
47338;DHT22;33069;51.970;5.892;2023-08-21T04:40:32;19.50;77.50
47338;DHT22;33069;51.970;5.892;2023-08-21T04:43:18;19.40;77.00
47338;DHT22;33069;51.970;5.892;2023-08-21T04:46:04;19.50;77.70
47338;DHT22;33069;51.970;5.892;2023-08-21T04:48:50;19.50;77.40
47338;DHT22;33069;51.970;5.892;2023-08-21T04:51:36;19.50;77.30
47338;DHT22;33069;51.970;5.892;2023-08-21T04:54:22;19.60;77.40
47338;DHT22;33069;51.970;5.892;2023-08-21T04:57:08;19.70;77.50
47338;DHT22;33069;51.970;5.892;2023-08-21T04:59:54;19.60;77.70
47338;DHT22;33069;51.970;5.892;2023-08-21T05:02:40;19.50;77.90
47338;DHT22;33069;51.970;5.892;2023-08-21T05:05:26;19.20;79.00
47338;DHT22;33069;51.970;5.892;2023-08-21T05:08:12;19.10;79.80
47338;DHT22;33069;51.970;5.892;2023-08-21T05:10:59;19.20;79.40
47338;DHT22;33069;51.970;5.892;2023-08-21T05:13:45;19.40;77.90
47338;DHT22;33069;51.970;5.892;2023-08-21T05:16:31;19.40;76.60
47338;DHT22;33069;51.970;5.892;2023-08-21T05:19:17;19.50;76.40
47338;DHT22;33069;51.970;5.892;2023-08-21T05:22:03;19.50;76.40
47338;DHT22;33069;51.970;5.892;2023-08-21T05:24:49;19.50;75.30
47338;DHT22;33069;51.970;5.892;2023-08-21T05:27:35;19.70;76.00
47338;DHT22;33069;51.970;5.892;2023-08-21T05:30:21;19.80;75.90
47338;DHT22;33069;51.970;5.892;2023-08-21T05:33:07;19.80;75.40
47338;DHT22;33069;51.970;5.892;2023-08-21T05:35:53;19.90;75.30
47338;DHT22;33069;51.970;5.892;2023-08-21T05:38:39;20.00;75.70
47338;DHT22;33069;51.970;5.892;2023-08-21T05:41:25;20.00;76.30
47338;DHT22;33069;51.970;5.892;2023-08-21T05:44:11;20.00;75.90
47338;DHT22;33069;51.970;5.892;2023-08-21T05:46:57;19.90;76.20
47338;DHT22;33069;51.970;5.892;2023-08-21T05:49:43;20.20;75.80
47338;DHT22;33069;51.970;5.892;2023-08-21T05:52:30;20.00;75.00
47338;DHT22;33069;51.970;5.892;2023-08-21T05:55:16;20.00;75.40
47338;DHT22;33069;51.970;5.892;2023-08-21T05:58:02;20.00;74.40
47338;DHT22;33069;51.970;5.892;2023-08-21T06:00:48;19.80;75.90
47338;DHT22;33069;51.970;5.892;2023-08-21T06:03:34;19.60;74.60
47338;DHT22;33069;51.970;5.892;2023-08-21T06:06:20;19.70;74.40
47338;DHT22;33069;51.970;5.892;2023-08-21T06:09:06;20.10;74.80
47338;DHT22;33069;51.970;5.892;2023-08-21T06:11:53;20.20;74.00
47338;DHT22;33069;51.970;5.892;2023-08-21T06:14:39;20.40;73.70
47338;DHT22;33069;51.970;5.892;2023-08-21T06:17:27;20.70;73.10
47338;DHT22;33069;51.970;5.892;2023-08-21T06:20:13;20.60;72.90
47338;DHT22;33069;51.970;5.892;2023-08-21T06:22:59;20.40;73.30
47338;DHT22;33069;51.970;5.892;2023-08-21T06:25:47;20.30;72.60
47338;DHT22;33069;51.970;5.892;2023-08-21T06:28:33;20.50;72.70
47338;DHT22;33069;51.970;5.892;2023-08-21T06:31:19;20.50;72.90
47338;DHT22;33069;51.970;5.892;2023-08-21T06:34:06;20.60;73.00
47338;DHT22;33069;51.970;5.892;2023-08-21T06:36:52;20.80;72.90
47338;DHT22;33069;51.970;5.892;2023-08-21T06:39:38;20.80;72.40
47338;DHT22;33069;51.970;5.892;2023-08-21T06:42:24;20.90;72.40
47338;DHT22;33069;51.970;5.892;2023-08-21T06:45:10;21.00;72.00
47338;DHT22;33069;51.970;5.892;2023-08-21T06:47:56;20.80;72.70
47338;DHT22;33069;51.970;5.892;2023-08-21T06:50:41;20.90;72.80
47338;DHT22;33069;51.970;5.892;2023-08-21T06:53:27;21.10;71.80
47338;DHT22;33069;51.970;5.892;2023-08-21T06:56:15;21.20;70.60
47338;DHT22;33069;51.970;5.892;2023-08-21T06:59:01;21.10;69.80
47338;DHT22;33069;51.970;5.892;2023-08-21T07:01:47;21.20;69.10
47338;DHT22;33069;51.970;5.892;2023-08-21T07:04:33;21.20;69.00
47338;DHT22;33069;51.970;5.892;2023-08-21T07:07:19;21.30;69.10
47338;DHT22;33069;51.970;5.892;2023-08-21T07:10:05;21.30;68.50
47338;DHT22;33069;51.970;5.892;2023-08-21T07:12:53;21.40;68.40
47338;DHT22;33069;51.970;5.892;2023-08-21T07:15:39;21.50;67.80
47338;DHT22;33069;51.970;5.892;2023-08-21T07:18:25;21.70;67.60
47338;DHT22;33069;51.970;5.892;2023-08-21T07:21:11;21.70;66.50
47338;DHT22;33069;51.970;5.892;2023-08-21T07:23:57;21.70;66.50
47338;DHT22;33069;51.970;5.892;2023-08-21T07:26:43;21.60;66.70
47338;DHT22;33069;51.970;5.892;2023-08-21T07:29:29;21.70;66.00
47338;DHT22;33069;51.970;5.892;2023-08-21T07:32:15;21.90;65.50
47338;DHT22;33069;51.970;5.892;2023-08-21T07:35:01;21.90;64.40
47338;DHT22;33069;51.970;5.892;2023-08-21T07:37:47;22.10;65.60
47338;DHT22;33069;51.970;5.892;2023-08-21T07:40:33;22.20;62.80
47338;DHT22;33069;51.970;5.892;2023-08-21T07:43:19;22.60;62.20
47338;DHT22;33069;51.970;5.892;2023-08-21T07:46:06;22.80;61.80
47338;DHT22;33069;51.970;5.892;2023-08-21T07:48:54;22.70;61.80
47338;DHT22;33069;51.970;5.892;2023-08-21T07:51:40;22.20;62.60
47338;DHT22;33069;51.970;5.892;2023-08-21T07:54:26;22.20;60.60
47338;DHT22;33069;51.970;5.892;2023-08-21T07:57:12;22.10;60.70
47338;DHT22;33069;51.970;5.892;2023-08-21T07:59:58;22.20;61.10
47338;DHT22;33069;51.970;5.892;2023-08-21T08:02:44;22.60;61.30
47338;DHT22;33069;51.970;5.892;2023-08-21T08:05:31;22.70;63.70
47338;DHT22;33069;51.970;5.892;2023-08-21T08:08:17;22.90;63.70
47338;DHT22;33069;51.970;5.892;2023-08-21T08:11:03;23.10;64.10
47338;DHT22;33069;51.970;5.892;2023-08-21T08:13:50;23.30;62.30
47338;DHT22;33069;51.970;5.892;2023-08-21T08:16:36;23.30;62.20
47338;DHT22;33069;51.970;5.892;2023-08-21T08:19:22;23.30;62.50
47338;DHT22;33069;51.970;5.892;2023-08-21T08:22:08;23.30;62.60
47338;DHT22;33069;51.970;5.892;2023-08-21T08:24:54;23.50;62.20
47338;DHT22;33069;51.970;5.892;2023-08-21T08:27:40;23.60;61.60
47338;DHT22;33069;51.970;5.892;2023-08-21T08:30:26;23.50;61.20
47338;DHT22;33069;51.970;5.892;2023-08-21T08:33:12;23.40;58.60
47338;DHT22;33069;51.970;5.892;2023-08-21T08:35:58;23.30;59.10
47338;DHT22;33069;51.970;5.892;2023-08-21T08:38:44;23.40;58.50
47338;DHT22;33069;51.970;5.892;2023-08-21T08:41:38;23.50;59.00
47338;DHT22;33069;51.970;5.892;2023-08-21T08:44:28;23.20;59.60
47338;DHT22;33069;51.970;5.892;2023-08-21T08:47:15;23.30;59.50
47338;DHT22;33069;51.970;5.892;2023-08-21T08:50:04;23.00;61.20
47338;DHT22;33069;51.970;5.892;2023-08-21T08:52:50;23.30;58.20
47338;DHT22;33069;51.970;5.892;2023-08-21T08:55:36;23.50;57.00
47338;DHT22;33069;51.970;5.892;2023-08-21T08:58:22;23.60;58.20
47338;DHT22;33069;51.970;5.892;2023-08-21T09:01:09;23.50;58.40
47338;DHT22;33069;51.970;5.892;2023-08-21T09:03:58;23.20;59.70
47338;DHT22;33069;51.970;5.892;2023-08-21T09:06:44;23.20;59.90
47338;DHT22;33069;51.970;5.892;2023-08-21T09:09:40;23.00;58.70
47338;DHT22;33069;51.970;5.892;2023-08-21T09:12:26;23.00;58.70
47338;DHT22;33069;51.970;5.892;2023-08-21T09:15:12;23.30;58.20
47338;DHT22;33069;51.970;5.892;2023-08-21T09:17:58;23.50;57.30
47338;DHT22;33069;51.970;5.892;2023-08-21T09:20:44;23.80;57.60
47338;DHT22;33069;51.970;5.892;2023-08-21T09:23:30;24.20;57.20
47338;DHT22;33069;51.970;5.892;2023-08-21T09:26:20;24.20;56.50
47338;DHT22;33069;51.970;5.892;2023-08-21T09:29:06;24.40;56.00
47338;DHT22;33069;51.970;5.892;2023-08-21T09:31:56;24.50;55.20
47338;DHT22;33069;51.970;5.892;2023-08-21T09:34:42;24.50;55.20
47338;DHT22;33069;51.970;5.892;2023-08-21T09:37:28;24.60;54.20
47338;DHT22;33069;51.970;5.892;2023-08-21T09:40:17;24.30;56.30
47338;DHT22;33069;51.970;5.892;2023-08-21T09:43:03;24.20;57.40
47338;DHT22;33069;51.970;5.892;2023-08-21T09:45:51;24.10;56.70
47338;DHT22;33069;51.970;5.892;2023-08-21T09:48:39;23.80;57.30
47338;DHT22;33069;51.970;5.892;2023-08-21T09:51:26;23.70;59.20
47338;DHT22;33069;51.970;5.892;2023-08-21T09:54:13;23.60;59.90
47338;DHT22;33069;51.970;5.892;2023-08-21T09:57:03;24.00;58.50
47338;DHT22;33069;51.970;5.892;2023-08-21T09:59:53;23.60;59.60
47338;DHT22;33069;51.970;5.892;2023-08-21T10:02:42;23.30;60.80
47338;DHT22;33069;51.970;5.892;2023-08-21T10:05:38;23.50;59.30
47338;DHT22;33069;51.970;5.892;2023-08-21T10:08:25;23.40;58.40
47338;DHT22;33069;51.970;5.892;2023-08-21T10:11:12;23.40;61.30
47338;DHT22;33069;51.970;5.892;2023-08-21T10:13:58;23.60;56.00
47338;DHT22;33069;51.970;5.892;2023-08-21T10:16:44;23.80;55.20
47338;DHT22;33069;51.970;5.892;2023-08-21T10:19:31;23.70;56.10
47338;DHT22;33069;51.970;5.892;2023-08-21T10:22:43;23.80;55.90
47338;DHT22;33069;51.970;5.892;2023-08-21T10:25:29;23.80;54.90
47338;DHT22;33069;51.970;5.892;2023-08-21T10:28:15;23.70;56.00
47338;DHT22;33069;51.970;5.892;2023-08-21T10:34:13;23.80;55.40
47338;DHT22;33069;51.970;5.892;2023-08-21T10:37:09;23.90;57.30
47338;DHT22;33069;51.970;5.892;2023-08-21T10:39:57;23.90;55.50
47338;DHT22;33069;51.970;5.892;2023-08-21T10:42:43;23.90;54.40
47338;DHT22;33069;51.970;5.892;2023-08-21T10:45:30;23.80;55.00
47338;DHT22;33069;51.970;5.892;2023-08-21T10:48:16;24.10;54.40
47338;DHT22;33069;51.970;5.892;2023-08-21T10:51:04;23.90;54.20
47338;DHT22;33069;51.970;5.892;2023-08-21T10:53:50;24.00;55.30
47338;DHT22;33069;51.970;5.892;2023-08-21T10:56:36;24.10;56.00
47338;DHT22;33069;51.970;5.892;2023-08-21T10:59:22;24.10;57.30
47338;DHT22;33069;51.970;5.892;2023-08-21T11:02:08;23.70;55.90
47338;DHT22;33069;51.970;5.892;2023-08-21T11:04:54;23.90;56.70
47338;DHT22;33069;51.970;5.892;2023-08-21T11:07:43;24.20;54.90
47338;DHT22;33069;51.970;5.892;2023-08-21T11:10:32;24.30;56.00
47338;DHT22;33069;51.970;5.892;2023-08-21T11:13:19;24.50;52.90
47338;DHT22;33069;51.970;5.892;2023-08-21T11:16:05;24.10;54.60
47338;DHT22;33069;51.970;5.892;2023-08-21T11:18:51;24.30;53.80
47338;DHT22;33069;51.970;5.892;2023-08-21T11:21:37;24.40;55.50
47338;DHT22;33069;51.970;5.892;2023-08-21T11:24:30;24.30;51.50
47338;DHT22;33069;51.970;5.892;2023-08-21T11:27:19;24.40;52.80
47338;DHT22;33069;51.970;5.892;2023-08-21T11:30:06;24.50;50.50
47338;DHT22;33069;51.970;5.892;2023-08-21T11:33:11;24.40;51.30
47338;DHT22;33069;51.970;5.892;2023-08-21T11:35:59;24.70;50.90
47338;DHT22;33069;51.970;5.892;2023-08-21T11:39:06;24.80;50.90
47338;DHT22;33069;51.970;5.892;2023-08-21T11:41:56;24.90;51.70
47338;DHT22;33069;51.970;5.892;2023-08-21T11:44:46;24.90;53.00
47338;DHT22;33069;51.970;5.892;2023-08-21T11:47:35;24.80;52.40
47338;DHT22;33069;51.970;5.892;2023-08-21T11:50:21;24.70;53.00
47338;DHT22;33069;51.970;5.892;2023-08-21T11:53:07;24.80;54.50
47338;DHT22;33069;51.970;5.892;2023-08-21T11:55:53;24.90;51.20
47338;DHT22;33069;51.970;5.892;2023-08-21T11:58:40;25.00;52.10
47338;DHT22;33069;51.970;5.892;2023-08-21T12:01:26;25.00;53.20
47338;DHT22;33069;51.970;5.892;2023-08-21T12:04:15;25.00;50.90
47338;DHT22;33069;51.970;5.892;2023-08-21T12:07:01;25.00;51.10
47338;DHT22;33069;51.970;5.892;2023-08-21T12:09:48;24.90;53.00
47338;DHT22;33069;51.970;5.892;2023-08-21T12:12:34;25.00;50.60
47338;DHT22;33069;51.970;5.892;2023-08-21T12:15:20;24.90;51.70
47338;DHT22;33069;51.970;5.892;2023-08-21T12:18:06;25.00;50.50
47338;DHT22;33069;51.970;5.892;2023-08-21T12:20:52;25.20;51.20
47338;DHT22;33069;51.970;5.892;2023-08-21T12:23:38;25.00;51.50
47338;DHT22;33069;51.970;5.892;2023-08-21T12:26:24;25.10;51.90
47338;DHT22;33069;51.970;5.892;2023-08-21T12:29:10;25.30;51.80
47338;DHT22;33069;51.970;5.892;2023-08-21T12:31:56;25.50;52.40
47338;DHT22;33069;51.970;5.892;2023-08-21T12:34:42;25.40;52.60
47338;DHT22;33069;51.970;5.892;2023-08-21T12:37:28;25.30;51.30
47338;DHT22;33069;51.970;5.892;2023-08-21T12:40:14;25.10;51.60
47338;DHT22;33069;51.970;5.892;2023-08-21T12:43:00;24.90;53.10
47338;DHT22;33069;51.970;5.892;2023-08-21T12:45:46;24.90;50.60
47338;DHT22;33069;51.970;5.892;2023-08-21T12:48:33;24.90;52.30
47338;DHT22;33069;51.970;5.892;2023-08-21T12:51:19;24.90;53.30
47338;DHT22;33069;51.970;5.892;2023-08-21T12:54:05;25.10;53.00
47338;DHT22;33069;51.970;5.892;2023-08-21T12:56:51;25.20;52.20
47338;DHT22;33069;51.970;5.892;2023-08-21T12:59:37;25.20;53.30
47338;DHT22;33069;51.970;5.892;2023-08-21T13:02:23;25.20;51.00
47338;DHT22;33069;51.970;5.892;2023-08-21T13:05:10;25.20;51.80
47338;DHT22;33069;51.970;5.892;2023-08-21T13:07:56;25.30;51.30
47338;DHT22;33069;51.970;5.892;2023-08-21T13:10:42;25.40;51.50
47338;DHT22;33069;51.970;5.892;2023-08-21T13:13:28;25.60;51.90
47338;DHT22;33069;51.970;5.892;2023-08-21T13:16:14;25.60;52.90
47338;DHT22;33069;51.970;5.892;2023-08-21T13:19:00;25.80;50.90
47338;DHT22;33069;51.970;5.892;2023-08-21T13:21:46;25.80;52.00
47338;DHT22;33069;51.970;5.892;2023-08-21T13:24:32;25.90;51.10
47338;DHT22;33069;51.970;5.892;2023-08-21T13:27:18;25.80;51.50
47338;DHT22;33069;51.970;5.892;2023-08-21T13:30:04;26.20;52.40
47338;DHT22;33069;51.970;5.892;2023-08-21T13:32:51;25.90;50.60
47338;DHT22;33069;51.970;5.892;2023-08-21T13:35:37;25.80;51.20
47338;DHT22;33069;51.970;5.892;2023-08-21T13:38:23;25.70;51.50
47338;DHT22;33069;51.970;5.892;2023-08-21T13:41:09;25.30;51.60
47338;DHT22;33069;51.970;5.892;2023-08-21T13:43:55;25.70;51.40
47338;DHT22;33069;51.970;5.892;2023-08-21T13:46:41;25.90;49.60
47338;DHT22;33069;51.970;5.892;2023-08-21T13:49:27;26.00;49.00
47338;DHT22;33069;51.970;5.892;2023-08-21T13:52:13;25.80;48.10
47338;DHT22;33069;51.970;5.892;2023-08-21T13:54:59;25.90;49.40
47338;DHT22;33069;51.970;5.892;2023-08-21T13:57:45;26.00;48.90
47338;DHT22;33069;51.970;5.892;2023-08-21T14:00:31;26.20;48.80
47338;DHT22;33069;51.970;5.892;2023-08-21T14:03:17;26.00;48.50
47338;DHT22;33069;51.970;5.892;2023-08-21T14:06:03;26.10;47.20
47338;DHT22;33069;51.970;5.892;2023-08-21T14:08:49;26.50;47.40
47338;DHT22;33069;51.970;5.892;2023-08-21T14:11:35;26.70;46.10
47338;DHT22;33069;51.970;5.892;2023-08-21T14:14:21;26.40;46.70
47338;DHT22;33069;51.970;5.892;2023-08-21T14:17:07;26.80;47.00
47338;DHT22;33069;51.970;5.892;2023-08-21T14:19:53;26.50;45.40
47338;DHT22;33069;51.970;5.892;2023-08-21T14:22:40;26.70;45.70
47338;DHT22;33069;51.970;5.892;2023-08-21T14:25:26;26.70;45.70
47338;DHT22;33069;51.970;5.892;2023-08-21T14:28:12;26.80;46.80
47338;DHT22;33069;51.970;5.892;2023-08-21T14:30:58;26.70;46.40
47338;DHT22;33069;51.970;5.892;2023-08-21T14:33:45;26.70;46.00
47338;DHT22;33069;51.970;5.892;2023-08-21T14:36:31;27.40;42.80
47338;DHT22;33069;51.970;5.892;2023-08-21T14:39:17;27.00;44.70
47338;DHT22;33069;51.970;5.892;2023-08-21T14:42:03;26.90;46.10
47338;DHT22;33069;51.970;5.892;2023-08-21T14:44:49;27.60;43.90
47338;DHT22;33069;51.970;5.892;2023-08-21T14:47:35;27.30;44.60
47338;DHT22;33069;51.970;5.892;2023-08-21T14:50:23;27.80;43.50
47338;DHT22;33069;51.970;5.892;2023-08-21T14:53:09;27.80;44.10
47338;DHT22;33069;51.970;5.892;2023-08-21T14:55:55;27.40;44.30
47338;DHT22;33069;51.970;5.892;2023-08-21T14:58:41;27.30;42.60
47338;DHT22;33069;51.970;5.892;2023-08-21T15:01:29;27.80;43.60
47338;DHT22;33069;51.970;5.892;2023-08-21T15:04:15;28.30;41.40
47338;DHT22;33069;51.970;5.892;2023-08-21T15:07:01;28.40;41.60
47338;DHT22;33069;51.970;5.892;2023-08-21T15:09:47;27.90;42.90
47338;DHT22;33069;51.970;5.892;2023-08-21T15:12:33;28.30;42.30
47338;DHT22;33069;51.970;5.892;2023-08-21T15:15:19;28.10;42.00
47338;DHT22;33069;51.970;5.892;2023-08-21T15:18:06;28.00;42.90
47338;DHT22;33069;51.970;5.892;2023-08-21T15:20:52;28.10;42.70
47338;DHT22;33069;51.970;5.892;2023-08-21T15:23:38;28.10;43.10
47338;DHT22;33069;51.970;5.892;2023-08-21T15:26:24;28.50;41.40
47338;DHT22;33069;51.970;5.892;2023-08-21T15:29:10;28.70;41.30
47338;DHT22;33069;51.970;5.892;2023-08-21T15:31:56;28.90;42.90
47338;DHT22;33069;51.970;5.892;2023-08-21T15:34:42;28.30;43.40
47338;DHT22;33069;51.970;5.892;2023-08-21T15:37:28;27.90;44.60
47338;DHT22;33069;51.970;5.892;2023-08-21T15:40:14;28.50;43.70
47338;DHT22;33069;51.970;5.892;2023-08-21T15:43:02;27.90;42.50
47338;DHT22;33069;51.970;5.892;2023-08-21T15:45:51;27.50;44.50
47338;DHT22;33069;51.970;5.892;2023-08-21T15:48:38;28.00;43.00
47338;DHT22;33069;51.970;5.892;2023-08-21T15:51:24;27.80;43.80
47338;DHT22;33069;51.970;5.892;2023-08-21T15:54:10;28.60;43.40
47338;DHT22;33069;51.970;5.892;2023-08-21T15:56:56;27.80;43.10
47338;DHT22;33069;51.970;5.892;2023-08-21T15:59:42;28.00;44.20
47338;DHT22;33069;51.970;5.892;2023-08-21T16:02:28;28.50;43.00
47338;DHT22;33069;51.970;5.892;2023-08-21T16:05:14;28.10;43.00
47338;DHT22;33069;51.970;5.892;2023-08-21T16:08:00;28.10;43.90
47338;DHT22;33069;51.970;5.892;2023-08-21T16:10:46;29.00;41.10
47338;DHT22;33069;51.970;5.892;2023-08-21T16:13:32;28.00;42.80
47338;DHT22;33069;51.970;5.892;2023-08-21T16:16:18;28.40;41.20
47338;DHT22;33069;51.970;5.892;2023-08-21T16:19:04;29.40;39.50
47338;DHT22;33069;51.970;5.892;2023-08-21T16:21:50;29.40;40.80
47338;DHT22;33069;51.970;5.892;2023-08-21T16:24:36;28.70;39.50
47338;DHT22;33069;51.970;5.892;2023-08-21T16:27:22;29.10;39.50
47338;DHT22;33069;51.970;5.892;2023-08-21T16:30:09;28.80;40.00
47338;DHT22;33069;51.970;5.892;2023-08-21T16:32:55;29.30;40.70
47338;DHT22;33069;51.970;5.892;2023-08-21T16:35:41;28.90;41.50
47338;DHT22;33069;51.970;5.892;2023-08-21T16:38:27;29.10;39.90
47338;DHT22;33069;51.970;5.892;2023-08-21T16:41:13;29.40;40.60
47338;DHT22;33069;51.970;5.892;2023-08-21T16:43:59;29.20;40.70
47338;DHT22;33069;51.970;5.892;2023-08-21T16:46:45;29.30;41.10
47338;DHT22;33069;51.970;5.892;2023-08-21T16:49:31;29.60;40.10
47338;DHT22;33069;51.970;5.892;2023-08-21T16:52:18;30.10;37.90
47338;DHT22;33069;51.970;5.892;2023-08-21T16:55:04;29.80;39.30
47338;DHT22;33069;51.970;5.892;2023-08-21T16:57:50;29.80;38.30
47338;DHT22;33069;51.970;5.892;2023-08-21T17:00:36;30.00;38.20
47338;DHT22;33069;51.970;5.892;2023-08-21T17:03:23;29.90;39.30
47338;DHT22;33069;51.970;5.892;2023-08-21T17:06:09;29.20;40.80
47338;DHT22;33069;51.970;5.892;2023-08-21T17:08:55;29.30;40.90
47338;DHT22;33069;51.970;5.892;2023-08-21T17:11:41;29.10;41.80
47338;DHT22;33069;51.970;5.892;2023-08-21T17:14:27;29.00;40.70
47338;DHT22;33069;51.970;5.892;2023-08-21T17:17:12;29.30;40.50
47338;DHT22;33069;51.970;5.892;2023-08-21T17:19:59;29.30;41.00
47338;DHT22;33069;51.970;5.892;2023-08-21T17:22:45;29.10;41.80
47338;DHT22;33069;51.970;5.892;2023-08-21T17:25:31;29.00;42.00
47338;DHT22;33069;51.970;5.892;2023-08-21T17:28:17;28.90;42.60
47338;DHT22;33069;51.970;5.892;2023-08-21T17:31:03;28.30;44.00
47338;DHT22;33069;51.970;5.892;2023-08-21T17:33:49;28.70;44.50